Arlington, Kentucky
Current Conditions -  °F | °C
As of 5:55 AM on Sunday 23 Nov 2014 (Local Time) from KCIR Reporting Station
Overcast Overcast  
Wind Chill: 58°   Ceiling: 1900
Heat Index: 58°   Visibility: 10mi
Dew Point: 49°   Wind: 9mph
Humidity: 73%   Direction: 120°ESE
Pressure: 29.8"   Gusts: NA
Location:  36.79°N, 89.01°W
Report Text: KCIR 231155Z AUTO 12008KT 10SM OVC019 14/10 A2980 RMK AO2 T01430095 10144 20126
Loading
Personal Weather Stations






























Interactive Weather Map New forecast layout! Learn more

10-Day Weather Forecast

Advertisements
Track Severe Weather on mobile